createdAt,value
2022-11-18T00:01:23.982Z,17.27
2022-11-18T00:03:53.098Z,12.55
2022-11-18T00:06:23.333Z,16.65
2022-11-18T00:08:51.982Z,15.13
2022-11-18T00:11:41.322Z,14.52
2022-11-18T00:14:29.699Z,19.50
2022-11-18T00:17:01.460Z,15.52
2022-11-18T00:19:32.788Z,16.83
2022-11-18T00:22:01.548Z,14.88
2022-11-18T00:24:29.539Z,12.30
2022-11-18T00:26:57.681Z,13.82
2022-11-18T00:29:29.096Z,14.20
2022-11-18T00:31:58.298Z,17.92
2022-11-18T00:34:26.500Z,18.00
2022-11-18T00:36:54.656Z,15.90
2022-11-18T00:39:23.274Z,13.88
2022-11-18T00:42:09.919Z,12.23
2022-11-18T00:44:37.888Z,14.20
2022-11-18T00:47:05.974Z,13.73
2022-11-18T00:49:33.763Z,14.43
2022-11-18T00:52:02.070Z,12.65
2022-11-18T00:54:30.382Z,14.00
2022-11-18T00:56:58.305Z,14.38
2022-11-18T00:59:26.432Z,13.52
2022-11-18T01:01:54.546Z,10.95
2022-11-18T01:04:22.627Z,12.35
2022-11-18T01:06:50.624Z,9.55
2022-11-18T01:09:18.666Z,12.02
2022-11-18T01:12:05.262Z,8.00
2022-11-18T01:14:33.245Z,9.10
2022-11-18T01:17:01.880Z,10.68
2022-11-18T01:19:29.710Z,12.65
2022-11-18T01:22:03.213Z,10.32
2022-11-18T01:24:32.898Z,8.15
2022-11-18T01:27:01.786Z,11.82
2022-11-18T01:29:29.804Z,11.77
2022-11-18T01:34:45.352Z,11.52
2022-11-18T01:37:13.316Z,14.88
2022-11-18T01:39:41.214Z,13.02
2022-11-18T01:42:15.988Z,14.57
2022-11-18T01:45:00.348Z,13.52
2022-11-18T01:47:33.844Z,13.02
2022-11-18T01:50:01.915Z,12.38
2022-11-18T01:52:30.356Z,13.48
2022-11-18T01:55:02.477Z,13.77
2022-11-18T01:57:32.599Z,14.50
2022-11-18T02:00:04.757Z,14.60
2022-11-18T02:02:34.619Z,13.25
2022-11-18T02:05:04.598Z,12.68
2022-11-18T02:07:36.572Z,11.60
2022-11-18T02:10:07.071Z,14.57
2022-11-18T02:12:35.752Z,14.05
2022-11-18T02:15:03.835Z,13.25
2022-11-18T02:17:56.949Z,12.30
2022-11-18T02:20:32.068Z,13.55
2022-11-18T02:22:59.907Z,15.38
2022-11-18T02:25:27.654Z,10.50
2022-11-18T02:28:29.568Z,14.38
2022-11-18T02:31:16.803Z,13.52
2022-11-18T02:33:57.262Z,13.00
2022-11-18T02:36:51.221Z,15.13
2022-11-18T02:39:24.579Z,13.35
2022-11-18T02:41:54.231Z,13.80
2022-11-18T02:44:23.554Z,13.70
2022-11-18T02:46:54.804Z,13.38
2022-11-18T02:49:35.249Z,12.60
2022-11-18T02:52:04.248Z,13.98
2022-11-18T02:54:34.384Z,14.38
2022-11-18T02:57:03.526Z,17.20
2022-11-18T02:59:31.380Z,14.85
2022-11-18T03:02:00.012Z,14.85
2022-11-18T03:04:28.138Z,15.20
2022-11-18T03:07:17.975Z,16.25
2022-11-18T03:09:49.057Z,15.40
2022-11-18T03:12:32.909Z,17.90
2022-11-18T03:15:00.551Z,17.15
2022-11-18T03:17:56.202Z,17.20
2022-11-18T03:20:39.997Z,14.95
2022-11-18T03:23:25.675Z,19.52
2022-11-18T03:26:01.478Z,16.08
2022-11-18T03:28:49.769Z,13.35
2022-11-18T03:31:37.402Z,13.82
2022-11-18T03:34:10.388Z,14.65
2022-11-18T03:36:46.818Z,16.48
2022-11-18T03:39:19.182Z,19.15
2022-11-18T03:41:56.546Z,16.85
2022-11-18T03:44:30.059Z,17.70
2022-11-18T03:47:01.533Z,15.25
2022-11-18T03:49:43.528Z,13.57
2022-11-18T03:52:16.338Z,13.52
2022-11-18T03:54:47.096Z,13.55
2022-11-18T03:57:25.631Z,14.02
2022-11-18T04:00:14.711Z,16.65
2022-11-18T04:02:42.852Z,18.15
2022-11-18T04:05:12.208Z,16.67
2022-11-18T04:08:00.550Z,13.73
2022-11-18T04:10:35.930Z,12.35
2022-11-18T04:13:15.023Z,14.40
2022-11-18T04:15:43.357Z,15.70
2022-11-18T04:18:11.864Z,16.02
2022-11-18T04:20:40.343Z,13.13
2022-11-18T04:23:08.781Z,12.93
2022-11-18T04:25:36.970Z,15.68
2022-11-18T04:28:05.499Z,16.23
2022-11-18T04:30:33.687Z,13.57
2022-11-18T04:33:01.528Z,15.43
2022-11-18T04:35:29.451Z,14.38
2022-11-18T04:37:57.405Z,13.32
2022-11-18T04:40:25.368Z,13.07
2022-11-18T04:42:53.126Z,11.98
2022-11-18T04:45:20.830Z,14.88
2022-11-18T04:47:48.603Z,12.55
2022-11-18T04:50:16.592Z,15.55
2022-11-18T04:52:45.060Z,13.52
2022-11-18T04:55:13.034Z,14.70
2022-11-18T04:57:40.899Z,14.40
2022-11-18T05:00:09.330Z,14.57
2022-11-18T05:02:37.284Z,13.45
2022-11-18T05:05:05.435Z,14.48
2022-11-18T05:07:33.421Z,13.10
2022-11-18T05:10:01.339Z,14.25
2022-11-18T05:12:48.683Z,16.58
2022-11-18T05:15:20.367Z,16.63
2022-11-18T05:17:48.756Z,12.93
2022-11-18T05:20:16.975Z,15.82
2022-11-18T05:22:44.862Z,16.02
2022-11-18T05:25:12.662Z,14.32
2022-11-18T05:27:40.354Z,14.07
2022-11-18T05:30:08.815Z,13.82
2022-11-18T05:32:36.517Z,15.45
2022-11-18T05:35:04.500Z,15.13
2022-11-18T05:37:34.014Z,15.10
2022-11-18T05:40:01.822Z,17.90
2022-11-18T05:42:48.179Z,16.50
2022-11-18T05:45:16.433Z,13.70
2022-11-18T05:48:04.283Z,17.38
2022-11-18T05:50:33.944Z,16.73
2022-11-18T05:53:02.124Z,16.65
2022-11-18T05:55:38.915Z,13.43
2022-11-18T05:58:06.798Z,13.38
2022-11-18T06:00:35.392Z,18.17
2022-11-18T06:03:04.420Z,15.93
2022-11-18T06:05:32.149Z,16.80
2022-11-18T06:08:00.078Z,13.35
2022-11-18T06:10:35.084Z,19.27
2022-11-18T06:13:06.142Z,14.48
2022-11-18T06:15:40.736Z,15.90
2022-11-18T06:18:27.551Z,16.77
2022-11-18T06:21:01.188Z,13.40
2022-11-18T06:23:34.553Z,18.15
2022-11-18T06:26:02.431Z,16.02
2022-11-18T06:28:30.906Z,16.33
2022-11-18T06:30:59.417Z,15.18
2022-11-18T06:33:27.204Z,17.00
2022-11-18T06:35:55.057Z,15.15
2022-11-18T06:38:25.455Z,15.45
2022-11-18T06:40:53.518Z,16.83
2022-11-18T06:43:39.574Z,14.70
2022-11-18T06:46:28.964Z,14.90
2022-11-18T06:48:57.382Z,16.20
2022-11-18T06:51:25.451Z,14.43
2022-11-18T06:53:53.403Z,17.88
2022-11-18T06:56:22.548Z,16.50
2022-11-18T06:58:55.224Z,19.40
2022-11-18T07:01:25.846Z,16.90
2022-11-18T07:03:54.359Z,17.85
2022-11-18T07:06:27.734Z,19.40
2022-11-18T07:08:55.819Z,17.17
2022-11-18T07:11:25.622Z,23.30
2022-11-18T07:13:53.833Z,17.88
2022-11-18T07:16:23.861Z,19.13
2022-11-18T07:18:52.890Z,25.88
2022-11-18T07:21:26.673Z,18.65
2022-11-18T07:23:57.834Z,16.15
2022-11-18T07:26:25.744Z,17.27
2022-11-18T07:28:54.888Z,13.45
2022-11-18T07:31:22.844Z,14.95
2022-11-18T07:33:53.874Z,14.95
2022-11-18T07:36:24.027Z,13.10
2022-11-18T07:38:51.932Z,12.63
2022-11-18T07:41:25.487Z,16.70
2022-11-18T07:44:00.447Z,16.90
2022-11-18T07:46:30.522Z,16.02
2022-11-18T07:48:59.651Z,14.38
2022-11-18T07:51:36.085Z,16.75
2022-11-18T07:54:22.131Z,15.82
2022-11-18T07:56:49.887Z,14.95
2022-11-18T07:59:18.146Z,12.35
2022-11-18T08:01:46.179Z,12.82
2022-11-18T08:04:14.052Z,12.85
2022-11-18T08:06:42.224Z,14.32
2022-11-18T08:09:10.208Z,13.65
2022-11-18T08:11:38.196Z,13.13
2022-11-18T08:14:05.924Z,14.52
2022-11-18T08:16:33.707Z,11.43
2022-11-18T08:19:01.476Z,15.25
2022-11-18T08:21:29.640Z,15.10
2022-11-18T08:23:58.634Z,15.05
2022-11-18T08:26:27.431Z,13.45
2022-11-18T08:28:55.357Z,13.80
2022-11-18T08:31:25.531Z,16.20
2022-11-18T08:34:04.811Z,11.65
2022-11-18T08:36:34.583Z,13.43
2022-11-18T08:39:04.388Z,13.02
2022-11-18T08:41:41.716Z,12.63
2022-11-18T08:44:12.664Z,12.25
2022-11-18T08:46:41.007Z,11.88
2022-11-18T08:49:08.939Z,11.55
2022-11-18T08:51:37.245Z,14.18
2022-11-18T08:54:05.656Z,11.18
2022-11-18T08:56:33.586Z,15.20
2022-11-18T08:59:01.555Z,16.48
2022-11-18T09:01:29.534Z,14.20
2022-11-18T09:03:58.028Z,12.93
2022-11-18T09:06:26.787Z,13.95
2022-11-18T09:08:55.124Z,14.00
2022-11-18T09:11:29.830Z,14.80
2022-11-18T09:16:47.750Z,16.42
2022-11-18T09:22:05.055Z,14.63
2022-11-18T09:24:33.333Z,14.38
2022-11-18T09:27:05.681Z,16.95
2022-11-18T09:29:33.855Z,17.15
2022-11-18T09:32:02.349Z,15.93
2022-11-18T09:34:30.762Z,16.25
2022-11-18T09:36:58.646Z,12.75
2022-11-18T09:39:26.827Z,13.95
2022-11-18T09:42:21.470Z,13.70
2022-11-18T09:45:14.557Z,14.73
2022-11-18T09:47:43.282Z,14.23
2022-11-18T09:53:21.965Z,18.92
2022-11-18T09:55:51.366Z,14.52
2022-11-18T09:58:32.753Z,15.55
2022-11-18T10:01:01.099Z,14.23
2022-11-18T10:03:33.441Z,18.95
2022-11-18T10:06:04.456Z,14.68
2022-11-18T10:08:38.717Z,14.30
2022-11-18T10:11:21.341Z,14.77
2022-11-18T10:14:19.636Z,16.20
2022-11-18T10:17:07.131Z,13.50
2022-11-18T10:19:53.611Z,14.57
2022-11-18T10:22:37.444Z,15.35
2022-11-18T10:25:16.442Z,16.95
2022-11-18T10:27:46.364Z,13.15
2022-11-18T10:30:17.397Z,12.50
2022-11-18T10:33:05.848Z,14.38
2022-11-18T10:35:39.208Z,11.05
2022-11-18T10:38:14.276Z,12.02
2022-11-18T10:40:47.931Z,12.50
2022-11-18T10:43:42.599Z,13.65
2022-11-18T10:46:20.389Z,15.10
2022-11-18T10:48:48.268Z,15.48
2022-11-18T10:51:24.259Z,14.68
2022-11-18T10:53:52.002Z,15.73
2022-11-18T10:56:20.320Z,14.20
2022-11-18T10:58:50.193Z,13.85
2022-11-18T11:01:26.192Z,14.25
2022-11-18T11:04:04.801Z,14.27
2022-11-18T11:06:39.463Z,14.40
2022-11-18T11:09:30.512Z,14.63
2022-11-18T11:12:16.244Z,15.10
2022-11-18T11:15:00.722Z,12.90
2022-11-18T11:17:32.552Z,13.93
2022-11-18T11:20:18.762Z,13.27
2022-11-18T11:22:46.914Z,14.63
2022-11-18T11:28:57.404Z,16.23
2022-11-18T11:31:53.005Z,12.82
2022-11-18T11:34:43.275Z,12.38
2022-11-18T11:37:43.619Z,11.65
2022-11-18T11:40:26.089Z,14.75
2022-11-18T11:43:12.547Z,13.55
2022-11-18T11:45:58.725Z,15.15
2022-11-18T11:48:35.496Z,14.32
2022-11-18T11:51:16.722Z,14.30
2022-11-18T11:53:56.700Z,15.55
2022-11-18T11:56:45.582Z,16.67
2022-11-18T11:59:32.062Z,19.73
2022-11-18T12:02:57.655Z,16.27
2022-11-18T12:05:39.676Z,17.83
2022-11-18T12:11:14.220Z,17.40
2022-11-18T12:13:52.653Z,16.10
2022-11-18T12:16:51.648Z,15.52
2022-11-18T12:19:21.633Z,16.92
2022-11-18T12:22:05.477Z,15.55
2022-11-18T12:24:37.896Z,17.95
2022-11-18T12:27:12.896Z,17.05
2022-11-18T12:29:50.114Z,16.20
2022-11-18T12:32:36.794Z,14.52
2022-11-18T12:35:33.028Z,16.67
2022-11-18T12:38:01.715Z,16.73
2022-11-18T12:40:41.921Z,18.08
2022-11-18T12:43:47.838Z,14.60
2022-11-18T12:46:45.414Z,13.80
2022-11-18T12:49:22.780Z,13.93
2022-11-18T12:51:52.489Z,11.50
2022-11-18T12:54:33.491Z,12.55
2022-11-18T12:57:19.943Z,13.40
2022-11-18T12:59:47.886Z,15.15
2022-11-18T13:02:28.625Z,14.98
2022-11-18T13:05:08.758Z,14.82
2022-11-18T13:08:04.621Z,14.98
2022-11-18T13:10:35.135Z,15.35
2022-11-18T13:13:03.619Z,17.45
2022-11-18T13:15:49.986Z,16.77
2022-11-18T13:18:21.720Z,16.25
2022-11-18T13:23:48.796Z,18.73
2022-11-18T13:26:20.962Z,20.15
2022-11-18T13:29:16.488Z,21.90
2022-11-18T13:32:13.786Z,20.02
2022-11-18T13:34:49.342Z,21.77
2022-11-18T13:37:23.350Z,21.88
2022-11-18T13:39:51.687Z,22.63
2022-11-18T13:42:24.035Z,23.27
2022-11-18T13:44:55.702Z,24.40
2022-11-18T13:47:29.373Z,23.20
2022-11-18T13:50:21.179Z,21.73
2022-11-18T13:52:52.018Z,21.23
2022-11-18T13:55:25.872Z,23.33
2022-11-18T13:58:07.031Z,22.08
2022-11-18T14:00:36.701Z,25.40
2022-11-18T14:03:15.458Z,24.90
2022-11-18T14:05:43.376Z,21.75
2022-11-18T14:08:31.486Z,21.33
2022-11-18T14:11:00.104Z,23.55
2022-11-18T14:13:31.459Z,23.48
2022-11-18T14:16:01.993Z,26.92
2022-11-18T14:18:35.456Z,24.02
2022-11-18T14:21:05.173Z,22.90
2022-11-18T14:23:34.930Z,23.42
2022-11-18T14:26:05.103Z,24.20
2022-11-18T14:28:37.595Z,22.40
2022-11-18T14:31:07.748Z,25.13
2022-11-18T14:33:39.308Z,23.90
2022-11-18T14:36:16.484Z,25.58
2022-11-18T14:39:11.226Z,25.58
2022-11-18T14:41:47.634Z,24.25
2022-11-18T14:44:15.885Z,27.05
2022-11-18T14:46:46.007Z,25.70
2022-11-18T14:49:19.285Z,26.90
2022-11-18T14:51:47.832Z,24.90
2022-11-18T14:54:23.886Z,24.08
2022-11-18T14:56:58.419Z,25.83
2022-11-18T14:59:26.654Z,27.58
2022-11-18T15:01:55.118Z,33.60
2022-11-18T15:04:23.172Z,26.58
2022-11-18T15:06:51.197Z,27.27
2022-11-18T15:09:19.532Z,27.85
2022-11-18T15:11:47.983Z,29.02
2022-11-18T15:14:16.154Z,27.73
2022-11-18T15:16:44.417Z,24.35
2022-11-18T15:19:16.095Z,26.25
2022-11-18T15:21:45.600Z,24.60
2022-11-18T15:24:13.841Z,28.15
2022-11-18T15:26:44.288Z,25.77
2022-11-18T15:29:23.742Z,25.10
2022-11-18T15:31:52.064Z,23.58
2022-11-18T15:34:21.775Z,22.27
2022-11-18T15:36:49.986Z,26.27
2022-11-18T15:39:18.154Z,24.67
2022-11-18T15:41:45.905Z,23.17
2022-11-18T15:44:13.648Z,24.40
2022-11-18T15:46:41.750Z,30.02
2022-11-18T15:49:14.508Z,21.27
2022-11-18T15:51:42.382Z,19.23
2022-11-18T15:54:10.283Z,20.92
2022-11-18T15:56:39.999Z,23.35
2022-11-18T15:59:12.689Z,22.33
2022-11-18T16:01:45.640Z,21.92
2022-11-18T16:04:15.374Z,18.00
2022-11-18T16:06:43.779Z,19.95
2022-11-18T16:09:12.717Z,22.20
2022-11-18T16:11:59.059Z,21.52
2022-11-18T16:14:27.199Z,20.70
2022-11-18T16:16:56.652Z,17.55
2022-11-18T16:19:26.111Z,20.67
2022-11-18T16:21:57.087Z,18.48
2022-11-18T16:24:29.309Z,16.80
2022-11-18T16:26:57.453Z,17.75
2022-11-18T16:29:25.895Z,21.45
2022-11-18T16:34:42.214Z,15.80
2022-11-18T16:37:10.076Z,15.98
2022-11-18T16:39:37.948Z,18.20
2022-11-18T16:40:28.282Z,18.77
2022-11-18T16:42:08.677Z,17.52
2022-11-18T16:44:38.090Z,15.57
2022-11-18T16:47:12.696Z,18.48
2022-11-18T16:49:42.557Z,21.83
2022-11-18T16:52:10.500Z,17.88
2022-11-18T16:54:44.313Z,23.55
2022-11-18T16:57:13.190Z,17.67
2022-11-18T16:59:41.017Z,19.42
2022-11-18T17:02:10.729Z,18.38
2022-11-18T17:04:38.893Z,17.35
2022-11-18T17:07:09.633Z,17.85
2022-11-18T17:09:37.592Z,20.43
2022-11-18T17:12:05.823Z,17.60
2022-11-18T17:14:34.239Z,15.65
2022-11-18T17:17:01.888Z,18.05
2022-11-18T17:19:29.580Z,19.83
2022-11-18T17:21:58.106Z,17.65
2022-11-18T17:24:26.219Z,19.77
2022-11-18T17:26:54.760Z,18.23
2022-11-18T17:29:22.754Z,17.02
2022-11-18T17:31:50.667Z,18.25
2022-11-18T17:34:19.344Z,18.35
2022-11-18T17:36:47.218Z,18.15
2022-11-18T17:39:16.210Z,17.40
2022-11-18T17:42:02.838Z,19.27
2022-11-18T17:44:30.682Z,19.75
2022-11-18T17:46:59.845Z,19.15
2022-11-18T17:49:27.569Z,16.48
2022-11-18T17:51:55.350Z,21.50
2022-11-18T17:54:23.406Z,16.80
2022-11-18T17:56:54.421Z,18.23
2022-11-18T17:59:23.196Z,19.03
2022-11-18T18:01:57.357Z,18.13
2022-11-18T18:04:27.244Z,15.63
2022-11-18T18:06:55.333Z,17.50
2022-11-18T18:09:30.047Z,16.48
2022-11-18T18:11:59.756Z,15.45
2022-11-18T18:14:27.796Z,14.60
2022-11-18T18:16:55.592Z,16.27
2022-11-18T18:19:24.457Z,17.60
2022-11-18T18:21:53.800Z,16.25
2022-11-18T18:24:22.630Z,18.45
2022-11-18T18:26:51.210Z,16.90
2022-11-18T18:29:18.969Z,15.43
2022-11-18T18:31:47.072Z,15.63
2022-11-18T18:34:15.140Z,12.63
2022-11-18T18:36:43.401Z,14.65
2022-11-18T18:39:11.474Z,18.27
2022-11-18T18:41:39.418Z,16.25
2022-11-18T18:44:07.334Z,12.80
2022-11-18T18:46:36.910Z,16.05
2022-11-18T18:49:07.923Z,15.18
2022-11-18T18:51:38.314Z,15.85
2022-11-18T18:54:07.172Z,15.68
2022-11-18T18:56:35.349Z,12.50
2022-11-18T18:59:03.523Z,14.18
2022-11-18T19:01:31.446Z,14.50
2022-11-18T19:04:01.368Z,13.77
2022-11-18T19:09:21.384Z,12.07
2022-11-18T19:12:07.736Z,12.05
2022-11-18T19:14:36.117Z,11.98
2022-11-18T19:17:10.133Z,12.00
2022-11-18T19:19:58.512Z,14.07
2022-11-18T19:22:26.413Z,12.60
2022-11-18T19:24:54.807Z,13.07
2022-11-18T19:27:23.085Z,11.35
2022-11-18T19:29:51.008Z,11.35
2022-11-18T19:32:19.253Z,11.00
2022-11-18T19:34:47.027Z,11.27
2022-11-18T19:37:15.026Z,12.05
2022-11-18T19:39:42.822Z,10.18
2022-11-18T19:42:11.436Z,11.35
2022-11-18T19:44:39.835Z,11.77
2022-11-18T19:47:07.785Z,10.82
2022-11-18T19:49:35.660Z,10.13
2022-11-18T19:52:03.639Z,11.20
2022-11-18T19:54:31.396Z,9.88
2022-11-18T19:57:00.045Z,9.82
2022-11-18T19:59:28.028Z,9.20
2022-11-18T20:01:56.453Z,10.38
2022-11-18T20:04:24.456Z,11.02
2022-11-18T20:06:52.361Z,10.07
2022-11-18T20:09:20.521Z,11.35
2022-11-18T20:11:49.900Z,11.85
2022-11-18T20:14:18.068Z,12.05
2022-11-18T20:16:45.812Z,11.52
2022-11-18T20:19:13.888Z,10.68
2022-11-18T20:21:45.525Z,9.18
2022-11-18T20:24:18.582Z,12.32
2022-11-18T20:26:46.736Z,8.50
2022-11-18T20:29:18.035Z,11.55
2022-11-18T20:31:46.189Z,11.88
2022-11-18T20:34:15.031Z,12.70
2022-11-18T20:36:43.059Z,10.07
2022-11-18T20:39:15.789Z,10.88
2022-11-18T20:42:04.308Z,11.02
2022-11-18T20:44:32.556Z,12.05
2022-11-18T20:47:00.562Z,11.30
2022-11-18T20:49:28.738Z,12.10
2022-11-18T20:51:56.677Z,8.65
2022-11-18T20:54:24.497Z,9.50
2022-11-18T20:56:52.341Z,10.05
2022-11-18T20:59:20.626Z,10.43
2022-11-18T21:01:49.179Z,12.45
2022-11-18T21:04:17.824Z,10.68
2022-11-18T21:06:45.974Z,10.98
2022-11-18T21:09:14.691Z,11.63
2022-11-18T21:11:42.464Z,11.90
2022-11-18T21:14:24.537Z,9.82
2022-11-18T21:17:03.814Z,12.60
2022-11-18T21:19:35.227Z,12.05
2022-11-18T21:22:03.029Z,11.82
2022-11-18T21:24:32.645Z,11.43
2022-11-18T21:27:02.450Z,11.90
2022-11-18T21:29:32.105Z,11.15
2022-11-18T21:32:03.636Z,12.05
2022-11-18T21:34:32.163Z,11.27
2022-11-18T21:37:00.275Z,11.40
2022-11-18T21:39:28.265Z,10.82
2022-11-18T21:41:57.258Z,12.00
2022-11-18T21:44:28.560Z,12.20
2022-11-18T21:46:57.804Z,8.20
2022-11-18T21:49:25.731Z,8.23
2022-11-18T21:51:53.578Z,9.43
2022-11-18T21:54:21.395Z,8.57
2022-11-18T21:56:49.742Z,9.23
2022-11-18T21:59:17.792Z,8.75
2022-11-18T22:01:45.753Z,11.15
2022-11-18T22:04:33.454Z,9.88
2022-11-18T22:07:01.491Z,9.60
2022-11-18T22:09:35.822Z,10.75
2022-11-18T22:12:05.036Z,10.23
2022-11-18T22:14:32.928Z,8.50
2022-11-18T22:17:00.633Z,10.38
2022-11-18T22:19:28.676Z,9.98
2022-11-18T22:21:58.829Z,7.78
2022-11-18T22:24:26.773Z,8.90
2022-11-18T22:26:54.642Z,9.85
2022-11-18T22:29:24.377Z,11.73
2022-11-18T22:31:53.202Z,9.75
2022-11-18T22:34:21.639Z,9.68
2022-11-18T22:36:49.493Z,9.75
2022-11-18T22:39:17.954Z,10.98
2022-11-18T22:42:04.695Z,10.65
2022-11-18T22:44:32.543Z,10.60
2022-11-18T22:47:00.371Z,10.57
2022-11-18T22:49:28.288Z,12.02
2022-11-18T22:51:56.060Z,8.00
2022-11-18T22:54:38.399Z,9.70
2022-11-18T22:57:07.088Z,9.90
2022-11-18T22:59:34.953Z,8.90
2022-11-18T23:02:05.257Z,10.15
2022-11-18T23:04:33.088Z,7.78
2022-11-18T23:07:01.091Z,9.55
2022-11-18T23:09:29.013Z,10.07
2022-11-18T23:12:15.710Z,10.75
2022-11-18T23:14:43.771Z,7.50
2022-11-18T23:17:11.730Z,8.02
2022-11-18T23:19:43.769Z,8.85
2022-11-18T23:22:12.353Z,10.32
2022-11-18T23:24:40.362Z,9.45
2022-11-18T23:27:08.599Z,9.77
2022-11-18T23:29:36.459Z,10.93
2022-11-18T23:32:04.743Z,9.57
2022-11-18T23:34:32.550Z,10.50
2022-11-18T23:37:00.366Z,8.38
2022-11-18T23:39:28.355Z,11.27
2022-11-18T23:41:56.273Z,7.90
2022-11-18T23:44:44.043Z,8.40
2022-11-18T23:47:11.778Z,9.18
2022-11-18T23:49:39.637Z,9.45
2022-11-18T23:52:07.558Z,9.10
2022-11-18T23:54:35.524Z,9.68
2022-11-18T23:57:05.614Z,9.13
2022-11-18T23:59:33.677Z,12.15
